Lower Paxton, Pennsylvania
Current Conditions -  °F | °C
As of 8:38 PM on Monday 22 Dec 2014 (Local Time) from KCXY Reporting Station
Light Rain Light Rain  
Wind Chill: 34°   Ceiling: 300
Heat Index: 34°   Visibility: 1.7mi
Dew Point: 32°   Wind: 0mph
Humidity: 92%   Direction: NA
Pressure: 30.18"   Gusts: NA
Location:  40.3615°N, 76.7974°W
Report Text: KCXY 230138Z AUTO 00000KT 1 3/4SM -RA BR BKN003 BKN007 OVC024 01/00 A3018 RMK AO2 P0004 T00110000
Loading
Personal Weather Stations






























Interactive Weather Map New forecast layout! Learn more

10-Day Weather Forecast

Advertisements
Track Severe Weather on mobile